Dearing, Kansas
Current Conditions -  °F | °C
As of 11:52 PM on Tuesday 21 Oct 2014 (Local Time) from KCFV Reporting Station
Clear Clear  
Wind Chill: 61°   Ceiling: Unl
Heat Index: 61°   Visibility: 10mi
Dew Point: 54°   Wind: 3mph
Humidity: 78%   Direction: 120°ESE
Pressure: 30.08"   Gusts: NA
Location:  37.06°N, 95.71°W
Report Text: KCFV 220452Z AUTO 12003KT 10SM CLR 16/12 A3008 RMK AO2 SLP181 T01610122
Loading
Personal Weather Stations






























Interactive Weather Map
Tropical Storm Tracking
New forecast layout! Learn more

10-Day Weather Forecast

Advertisements
Track Severe Weather on mobile